createdAt,value
2022-08-29T00:06:31.349Z,15.51
2022-08-29T00:14:05.374Z,15.45
2022-08-29T00:21:41.968Z,15.45
2022-08-29T00:29:16.965Z,15.40
2022-08-29T00:36:53.284Z,15.42
2022-08-29T00:44:27.545Z,15.35
2022-08-29T00:52:08.109Z,15.32
2022-08-29T00:59:42.384Z,15.26
2022-08-29T01:07:17.580Z,15.24
2022-08-29T01:14:54.379Z,15.22
2022-08-29T01:22:48.536Z,15.11
2022-08-29T01:30:23.851Z,15.04
2022-08-29T01:37:57.902Z,14.99
2022-08-29T01:45:33.090Z,14.97
2022-08-29T01:53:06.899Z,14.97
2022-08-29T02:00:42.165Z,14.92
2022-08-29T02:08:16.124Z,14.83
2022-08-29T02:15:51.460Z,14.74
2022-08-29T02:23:31.042Z,14.66
2022-08-29T02:31:07.901Z,14.53
2022-08-29T02:38:42.013Z,14.46
2022-08-29T02:46:18.952Z,14.44
2022-08-29T02:53:53.094Z,14.39
2022-08-29T03:01:28.450Z,14.35
2022-08-29T03:09:02.248Z,14.33
2022-08-29T03:16:37.489Z,14.30
2022-08-29T03:24:11.487Z,14.24
2022-08-29T03:31:47.324Z,14.16
2022-08-29T03:39:21.641Z,14.12
2022-08-29T03:46:57.082Z,14.14
2022-08-29T03:54:30.977Z,14.07
2022-08-29T04:02:06.330Z,14.09
2022-08-29T04:09:40.983Z,14.11
2022-08-29T04:17:16.058Z,14.05
2022-08-29T04:24:49.626Z,14.04
2022-08-29T04:32:25.715Z,14.05
2022-08-29T04:39:59.623Z,14.01
2022-08-29T04:47:35.972Z,13.99
2022-08-29T04:55:11.470Z,13.99
2022-08-29T05:02:46.996Z,14.00
2022-08-29T05:10:22.529Z,14.11
2022-08-29T05:17:57.975Z,14.17
2022-08-29T05:25:31.823Z,14.28
2022-08-29T05:33:07.458Z,14.39
2022-08-29T05:40:41.877Z,14.53
2022-08-29T05:48:18.431Z,14.64
2022-08-29T05:55:52.198Z,14.71
2022-08-29T06:03:27.826Z,14.80
2022-08-29T06:11:01.636Z,14.90
2022-08-29T06:18:36.757Z,15.01
2022-08-29T06:26:12.268Z,15.11
2022-08-29T06:33:47.864Z,15.20
2022-08-29T06:41:21.659Z,15.28
2022-08-29T06:48:58.756Z,15.33
2022-08-29T06:56:33.102Z,15.33
2022-08-29T07:04:14.313Z,15.34
2022-08-29T07:11:48.499Z,15.43
2022-08-29T07:19:23.711Z,15.49
2022-08-29T07:26:57.447Z,15.58
2022-08-29T07:34:32.604Z,15.57
2022-08-29T07:42:06.555Z,15.69
2022-08-29T07:49:42.075Z,15.80
2022-08-29T07:57:17.951Z,15.89
2022-08-29T08:04:53.336Z,16.02
2022-08-29T08:12:27.194Z,16.12
2022-08-29T08:20:03.045Z,16.17
2022-08-29T08:27:40.663Z,16.26
2022-08-29T08:35:22.527Z,16.38
2022-08-29T08:43:00.527Z,16.45
2022-08-29T08:50:43.246Z,16.57
2022-08-29T08:58:29.309Z,16.68
2022-08-29T09:06:16.183Z,16.81
2022-08-29T09:14:02.460Z,16.97
2022-08-29T09:21:44.748Z,17.11
2022-08-29T09:29:21.005Z,17.23
2022-08-29T09:36:56.141Z,17.31
2022-08-29T09:44:31.122Z,17.39
2022-08-29T09:52:16.210Z,17.52
2022-08-29T09:59:52.366Z,17.63
2022-08-29T10:07:30.553Z,17.71
2022-08-29T10:15:08.354Z,17.79
2022-08-29T10:22:49.653Z,17.96
2022-08-29T10:30:28.210Z,18.14
2022-08-29T10:38:13.137Z,18.33
2022-08-29T10:46:02.445Z,18.52
2022-08-29T10:53:41.578Z,18.65
2022-08-29T11:01:22.295Z,18.72
2022-08-29T11:09:04.470Z,18.78
2022-08-29T11:16:44.388Z,18.72
2022-08-29T11:24:22.018Z,18.76
2022-08-29T11:32:04.094Z,18.92
2022-08-29T11:40:03.704Z,19.19
2022-08-29T11:47:41.509Z,19.37
2022-08-29T11:55:41.123Z,19.56
2022-08-29T12:03:57.480Z,19.65
2022-08-29T12:12:15.454Z,19.95
2022-08-29T12:19:53.959Z,20.13
2022-08-29T12:28:01.294Z,20.15
2022-08-29T12:36:03.440Z,20.31
2022-08-29T12:43:42.582Z,20.58
2022-08-29T12:51:37.264Z,20.65
2022-08-29T12:59:19.700Z,20.79
2022-08-29T13:06:58.815Z,20.97
2022-08-29T13:14:32.606Z,20.95
2022-08-29T13:22:13.204Z,20.88
2022-08-29T13:29:47.713Z,21.00
2022-08-29T13:37:31.812Z,21.04
2022-08-29T13:45:20.855Z,21.20
2022-08-29T13:52:57.605Z,21.37
2022-08-29T14:00:35.018Z,21.62
2022-08-29T14:08:12.920Z,21.61
2022-08-29T14:15:47.073Z,21.79
2022-08-29T14:23:23.299Z,21.87
2022-08-29T14:30:57.324Z,21.87
2022-08-29T14:38:32.843Z,22.23
2022-08-29T14:46:07.442Z,22.38
2022-08-29T14:53:51.709Z,22.54
2022-08-29T15:01:28.406Z,22.58
2022-08-29T15:09:03.667Z,22.86
2022-08-29T15:16:38.000Z,23.22
2022-08-29T15:24:13.181Z,23.24
2022-08-29T15:31:46.996Z,23.10
2022-08-29T15:39:22.968Z,22.91
2022-08-29T15:46:58.929Z,23.06
2022-08-29T15:54:36.988Z,23.33
2022-08-29T16:02:11.441Z,23.63
2022-08-29T16:09:46.932Z,24.15
2022-08-29T16:17:21.128Z,24.17
2022-08-29T16:24:56.739Z,23.96
2022-08-29T16:32:30.611Z,23.34
2022-08-29T16:40:08.428Z,22.97
2022-08-29T16:47:42.372Z,22.68
2022-08-29T16:55:19.852Z,22.43
2022-08-29T17:02:53.831Z,22.27
2022-08-29T17:10:28.020Z,22.05
2022-08-29T17:18:02.094Z,21.86
2022-08-29T17:25:37.217Z,21.73
2022-08-29T17:33:11.712Z,21.51
2022-08-29T17:40:49.089Z,21.38
2022-08-29T17:48:23.346Z,21.21
2022-08-29T17:55:59.527Z,21.04
2022-08-29T18:03:33.384Z,20.92
2022-08-29T18:11:12.273Z,20.76
2022-08-29T18:18:47.327Z,20.60
2022-08-29T18:26:23.907Z,20.42
2022-08-29T18:34:00.456Z,20.25
2022-08-29T18:41:36.999Z,20.05
2022-08-29T18:49:11.668Z,19.88
2022-08-29T18:56:46.996Z,19.75
2022-08-29T19:04:25.186Z,19.61
2022-08-29T19:12:00.739Z,19.43
2022-08-29T19:19:48.529Z,19.28
2022-08-29T19:27:42.705Z,19.13
2022-08-29T19:35:17.317Z,18.99
2022-08-29T19:42:52.791Z,18.85
2022-08-29T19:50:27.367Z,18.72
2022-08-29T19:58:02.556Z,18.62
2022-08-29T20:05:39.347Z,18.50
2022-08-29T20:13:14.846Z,18.41
2022-08-29T20:20:48.726Z,18.29
2022-08-29T20:28:24.021Z,18.14
2022-08-29T20:36:15.498Z,17.97
2022-08-29T20:43:50.748Z,17.86
2022-08-29T20:51:24.552Z,17.85
2022-08-29T20:59:00.811Z,17.82
2022-08-29T21:06:34.773Z,17.78
2022-08-29T21:14:10.420Z,17.74
2022-08-29T21:21:44.776Z,17.68
2022-08-29T21:29:20.654Z,17.60
2022-08-29T21:36:54.535Z,17.52
2022-08-29T21:44:29.773Z,17.44
2022-08-29T21:52:04.135Z,17.38
2022-08-29T21:59:41.292Z,17.33
2022-08-29T22:07:16.130Z,17.28
2022-08-29T22:15:09.156Z,17.22
2022-08-29T22:22:42.979Z,17.10
2022-08-29T22:30:18.551Z,17.07
2022-08-29T22:37:54.484Z,17.02
2022-08-29T22:45:29.752Z,16.96
2022-08-29T22:53:05.342Z,16.89
2022-08-29T23:00:40.520Z,16.84
2022-08-29T23:08:16.613Z,16.78
2022-08-29T23:15:52.085Z,16.73
2022-08-29T23:23:25.976Z,16.70
2022-08-29T23:31:02.608Z,16.64
2022-08-29T23:38:37.215Z,16.60
2022-08-29T23:46:13.722Z,16.56
2022-08-29T23:53:48.290Z,16.46
